sensor_id;sensor_type;location;lat;lon;timestamp;temperature;humidity
31455;DHT22;18084;53.028;8.834;2022-10-28T00:01:07;12.90;99.90
31455;DHT22;18084;53.028;8.834;2022-10-28T00:03:37;12.90;99.90
31455;DHT22;18084;53.028;8.834;2022-10-28T00:06:05;12.90;99.90
31455;DHT22;18084;53.028;8.834;2022-10-28T00:08:31;12.80;99.90
31455;DHT22;18084;53.028;8.834;2022-10-28T00:11:10;12.80;99.90
31455;DHT22;18084;53.028;8.834;2022-10-28T00:13:37;12.80;99.90
31455;DHT22;18084;53.028;8.834;2022-10-28T00:16:08;12.80;99.90
31455;DHT22;18084;53.028;8.834;2022-10-28T00:18:34;12.80;99.90
31455;DHT22;18084;53.028;8.834;2022-10-28T00:21:04;12.80;99.90
31455;DHT22;18084;53.028;8.834;2022-10-28T00:23:30;12.80;99.90
31455;DHT22;18084;53.028;8.834;2022-10-28T00:26:02;12.80;99.90
31455;DHT22;18084;53.028;8.834;2022-10-28T00:28:27;12.90;99.90
31455;DHT22;18084;53.028;8.834;2022-10-28T00:30:53;13.00;99.90
31455;DHT22;18084;53.028;8.834;2022-10-28T00:33:18;13.10;99.90
31455;DHT22;18084;53.028;8.834;2022-10-28T00:35:44;13.20;99.90
31455;DHT22;18084;53.028;8.834;2022-10-28T00:38:09;13.30;99.90
31455;DHT22;18084;53.028;8.834;2022-10-28T00:40:35;13.40;99.90
31455;DHT22;18084;53.028;8.834;2022-10-28T00:43:00;13.50;99.90
31455;DHT22;18084;53.028;8.834;2022-10-28T00:45:25;13.50;99.90
31455;DHT22;18084;53.028;8.834;2022-10-28T00:47:56;13.60;99.90
31455;DHT22;18084;53.028;8.834;2022-10-28T00:50:44;13.70;99.90
31455;DHT22;18084;53.028;8.834;2022-10-28T00:53:20;13.70;99.90
31455;DHT22;18084;53.028;8.834;2022-10-28T00:55:47;13.70;99.90
31455;DHT22;18084;53.028;8.834;2022-10-28T00:58:14;13.70;99.90
31455;DHT22;18084;53.028;8.834;2022-10-28T01:00:41;13.70;99.90
31455;DHT22;18084;53.028;8.834;2022-10-28T01:03:06;13.70;99.90
31455;DHT22;18084;53.028;8.834;2022-10-28T01:05:35;13.80;99.90
31455;DHT22;18084;53.028;8.834;2022-10-28T01:08:04;13.80;99.90
31455;DHT22;18084;53.028;8.834;2022-10-28T01:22:35;13.90;99.90
31455;DHT22;18084;53.028;8.834;2022-10-28T01:25:40;14.00;99.90
31455;DHT22;18084;53.028;8.834;2022-10-28T01:28:56;13.90;99.90
31455;DHT22;18084;53.028;8.834;2022-10-28T01:31:28;13.90;99.90
31455;DHT22;18084;53.028;8.834;2022-10-28T01:37:14;13.90;99.90
31455;DHT22;18084;53.028;8.834;2022-10-28T01:39:49;13.90;99.90
31455;DHT22;18084;53.028;8.834;2022-10-28T01:42:26;13.90;99.90
31455;DHT22;18084;53.028;8.834;2022-10-28T01:45:13;13.90;99.90
31455;DHT22;18084;53.028;8.834;2022-10-28T01:47:59;13.90;99.90
31455;DHT22;18084;53.028;8.834;2022-10-28T01:53:06;13.90;99.90
31455;DHT22;18084;53.028;8.834;2022-10-28T01:55:40;14.00;99.90
31455;DHT22;18084;53.028;8.834;2022-10-28T01:58:08;14.00;99.90
31455;DHT22;18084;53.028;8.834;2022-10-28T02:00:36;14.00;99.90
31455;DHT22;18084;53.028;8.834;2022-10-28T02:03:05;14.10;99.90
31455;DHT22;18084;53.028;8.834;2022-10-28T02:05:45;14.00;99.90
31455;DHT22;18084;53.028;8.834;2022-10-28T02:13:54;13.90;99.90
31455;DHT22;18084;53.028;8.834;2022-10-28T02:19:07;13.90;99.90
31455;DHT22;18084;53.028;8.834;2022-10-28T02:22:11;13.80;99.90
31455;DHT22;18084;53.028;8.834;2022-10-28T02:27:32;13.70;99.90
31455;DHT22;18084;53.028;8.834;2022-10-28T02:30:06;13.70;99.90
31455;DHT22;18084;53.028;8.834;2022-10-28T02:32:36;13.70;99.90
31455;DHT22;18084;53.028;8.834;2022-10-28T02:35:09;13.60;99.90
31455;DHT22;18084;53.028;8.834;2022-10-28T02:37:39;13.60;99.90
31455;DHT22;18084;53.028;8.834;2022-10-28T02:40:10;13.60;99.90
31455;DHT22;18084;53.028;8.834;2022-10-28T02:42:44;13.60;99.90
31455;DHT22;18084;53.028;8.834;2022-10-28T02:45:17;13.60;99.90
31455;DHT22;18084;53.028;8.834;2022-10-28T02:47:56;13.60;99.90
31455;DHT22;18084;53.028;8.834;2022-10-28T02:50:29;13.60;99.90
31455;DHT22;18084;53.028;8.834;2022-10-28T02:52:58;13.60;99.90
31455;DHT22;18084;53.028;8.834;2022-10-28T02:55:29;13.70;99.90
31455;DHT22;18084;53.028;8.834;2022-10-28T02:57:57;13.70;99.90
31455;DHT22;18084;53.028;8.834;2022-10-28T03:00:23;13.70;99.90
31455;DHT22;18084;53.028;8.834;2022-10-28T03:02:49;13.70;99.90
31455;DHT22;18084;53.028;8.834;2022-10-28T03:05:15;13.70;99.90
31455;DHT22;18084;53.028;8.834;2022-10-28T03:07:41;13.70;99.90
31455;DHT22;18084;53.028;8.834;2022-10-28T03:10:07;13.70;99.90
31455;DHT22;18084;53.028;8.834;2022-10-28T03:12:32;13.70;99.90
31455;DHT22;18084;53.028;8.834;2022-10-28T03:14:58;13.80;99.90
31455;DHT22;18084;53.028;8.834;2022-10-28T03:17:23;13.70;99.90
31455;DHT22;18084;53.028;8.834;2022-10-28T03:19:49;13.70;99.90
31455;DHT22;18084;53.028;8.834;2022-10-28T03:22:14;13.70;99.90
31455;DHT22;18084;53.028;8.834;2022-10-28T03:24:40;13.70;99.90
31455;DHT22;18084;53.028;8.834;2022-10-28T03:27:05;13.70;99.90
31455;DHT22;18084;53.028;8.834;2022-10-28T03:29:31;13.70;99.90
31455;DHT22;18084;53.028;8.834;2022-10-28T03:31:56;13.70;99.90
31455;DHT22;18084;53.028;8.834;2022-10-28T03:34:22;13.70;99.90
31455;DHT22;18084;53.028;8.834;2022-10-28T03:36:47;13.60;99.90
31455;DHT22;18084;53.028;8.834;2022-10-28T03:39:13;13.70;99.90
31455;DHT22;18084;53.028;8.834;2022-10-28T03:41:38;13.70;99.90
31455;DHT22;18084;53.028;8.834;2022-10-28T03:44:04;13.70;99.90
31455;DHT22;18084;53.028;8.834;2022-10-28T03:46:30;13.70;99.90
31455;DHT22;18084;53.028;8.834;2022-10-28T03:48:55;13.60;99.90
31455;DHT22;18084;53.028;8.834;2022-10-28T03:51:21;13.60;99.90
31455;DHT22;18084;53.028;8.834;2022-10-28T03:53:46;13.60;99.90
31455;DHT22;18084;53.028;8.834;2022-10-28T03:56:12;13.60;99.90
31455;DHT22;18084;53.028;8.834;2022-10-28T03:58:37;13.60;99.90
31455;DHT22;18084;53.028;8.834;2022-10-28T04:01:03;13.50;99.90
31455;DHT22;18084;53.028;8.834;2022-10-28T04:03:30;13.50;99.90
31455;DHT22;18084;53.028;8.834;2022-10-28T04:05:55;13.60;99.90
31455;DHT22;18084;53.028;8.834;2022-10-28T04:08:21;13.50;99.90
31455;DHT22;18084;53.028;8.834;2022-10-28T04:10:46;13.50;99.90
31455;DHT22;18084;53.028;8.834;2022-10-28T04:13:12;13.50;99.90
31455;DHT22;18084;53.028;8.834;2022-10-28T04:15:38;13.50;99.90
31455;DHT22;18084;53.028;8.834;2022-10-28T04:18:03;13.50;99.90
31455;DHT22;18084;53.028;8.834;2022-10-28T04:20:30;13.50;99.90
31455;DHT22;18084;53.028;8.834;2022-10-28T04:22:56;13.50;99.90
31455;DHT22;18084;53.028;8.834;2022-10-28T04:25:22;13.60;99.90
31455;DHT22;18084;53.028;8.834;2022-10-28T04:27:48;13.60;99.90
31455;DHT22;18084;53.028;8.834;2022-10-28T04:30:14;13.60;99.90
31455;DHT22;18084;53.028;8.834;2022-10-28T04:32:40;13.60;99.90
31455;DHT22;18084;53.028;8.834;2022-10-28T04:35:06;13.50;99.90
31455;DHT22;18084;53.028;8.834;2022-10-28T04:37:32;13.50;99.90
31455;DHT22;18084;53.028;8.834;2022-10-28T04:40:00;13.50;99.90
31455;DHT22;18084;53.028;8.834;2022-10-28T04:42:26;13.50;99.90
31455;DHT22;18084;53.028;8.834;2022-10-28T04:44:51;13.40;99.90
31455;DHT22;18084;53.028;8.834;2022-10-28T04:47:17;13.50;99.90
31455;DHT22;18084;53.028;8.834;2022-10-28T04:49:42;13.40;99.90
31455;DHT22;18084;53.028;8.834;2022-10-28T04:52:08;13.40;99.90
31455;DHT22;18084;53.028;8.834;2022-10-28T04:54:34;13.40;99.90
31455;DHT22;18084;53.028;8.834;2022-10-28T04:56:59;13.30;99.90
31455;DHT22;18084;53.028;8.834;2022-10-28T04:59:25;13.40;99.90
31455;DHT22;18084;53.028;8.834;2022-10-28T05:01:50;13.40;99.90
31455;DHT22;18084;53.028;8.834;2022-10-28T05:04:16;13.30;99.90
31455;DHT22;18084;53.028;8.834;2022-10-28T05:06:41;13.30;99.90
31455;DHT22;18084;53.028;8.834;2022-10-28T05:09:07;13.30;99.90
31455;DHT22;18084;53.028;8.834;2022-10-28T05:11:32;13.30;99.90
31455;DHT22;18084;53.028;8.834;2022-10-28T05:13:58;13.20;99.90
31455;DHT22;18084;53.028;8.834;2022-10-28T05:16:23;13.30;99.90
31455;DHT22;18084;53.028;8.834;2022-10-28T05:18:49;13.90;99.90
31455;DHT22;18084;53.028;8.834;2022-10-28T05:21:14;13.30;99.90
31455;DHT22;18084;53.028;8.834;2022-10-28T05:23:40;13.20;99.90
31455;DHT22;18084;53.028;8.834;2022-10-28T05:26:06;13.20;99.90
31455;DHT22;18084;53.028;8.834;2022-10-28T05:28:31;13.20;99.90
31455;DHT22;18084;53.028;8.834;2022-10-28T05:30:57;13.20;99.90
31455;DHT22;18084;53.028;8.834;2022-10-28T05:33:22;13.20;99.90
31455;DHT22;18084;53.028;8.834;2022-10-28T05:35:48;13.10;99.90
31455;DHT22;18084;53.028;8.834;2022-10-28T05:38:14;13.10;99.90
31455;DHT22;18084;53.028;8.834;2022-10-28T05:40:39;13.10;99.90
31455;DHT22;18084;53.028;8.834;2022-10-28T05:43:05;13.10;99.90
31455;DHT22;18084;53.028;8.834;2022-10-28T05:45:30;13.10;99.90
31455;DHT22;18084;53.028;8.834;2022-10-28T05:47:56;13.10;99.90
31455;DHT22;18084;53.028;8.834;2022-10-28T05:50:22;13.10;99.90
31455;DHT22;18084;53.028;8.834;2022-10-28T05:52:50;13.00;99.90
31455;DHT22;18084;53.028;8.834;2022-10-28T05:55:17;13.00;99.90
31455;DHT22;18084;53.028;8.834;2022-10-28T05:57:44;13.00;99.90
31455;DHT22;18084;53.028;8.834;2022-10-28T06:00:10;13.00;99.90
31455;DHT22;18084;53.028;8.834;2022-10-28T06:02:36;13.00;99.90
31455;DHT22;18084;53.028;8.834;2022-10-28T06:05:02;13.00;99.90
31455;DHT22;18084;53.028;8.834;2022-10-28T06:07:28;12.90;99.90
31455;DHT22;18084;53.028;8.834;2022-10-28T06:09:54;12.90;99.90
31455;DHT22;18084;53.028;8.834;2022-10-28T06:12:19;12.90;99.90
31455;DHT22;18084;53.028;8.834;2022-10-28T06:14:45;13.00;99.90
31455;DHT22;18084;53.028;8.834;2022-10-28T06:17:10;12.80;99.90
31455;DHT22;18084;53.028;8.834;2022-10-28T06:19:36;12.90;99.90
31455;DHT22;18084;53.028;8.834;2022-10-28T06:22:01;12.90;99.90
31455;DHT22;18084;53.028;8.834;2022-10-28T06:24:27;12.90;99.90
31455;DHT22;18084;53.028;8.834;2022-10-28T06:26:52;12.90;99.90
31455;DHT22;18084;53.028;8.834;2022-10-28T06:29:18;12.80;99.90
31455;DHT22;18084;53.028;8.834;2022-10-28T06:31:44;12.90;99.90
31455;DHT22;18084;53.028;8.834;2022-10-28T06:34:10;12.90;99.90
31455;DHT22;18084;53.028;8.834;2022-10-28T06:36:36;13.00;99.90
31455;DHT22;18084;53.028;8.834;2022-10-28T06:39:02;13.00;99.90
31455;DHT22;18084;53.028;8.834;2022-10-28T06:41:28;13.00;99.90
31455;DHT22;18084;53.028;8.834;2022-10-28T06:43:53;13.00;99.90
31455;DHT22;18084;53.028;8.834;2022-10-28T06:46:19;13.10;99.90
31455;DHT22;18084;53.028;8.834;2022-10-28T06:48:44;13.10;99.90
31455;DHT22;18084;53.028;8.834;2022-10-28T06:51:10;13.10;99.90
31455;DHT22;18084;53.028;8.834;2022-10-28T06:53:35;13.10;99.90
31455;DHT22;18084;53.028;8.834;2022-10-28T06:56:01;13.20;99.90
31455;DHT22;18084;53.028;8.834;2022-10-28T06:58:27;13.20;99.90
31455;DHT22;18084;53.028;8.834;2022-10-28T07:00:53;13.30;99.90
31455;DHT22;18084;53.028;8.834;2022-10-28T07:03:19;13.30;99.90
31455;DHT22;18084;53.028;8.834;2022-10-28T07:05:46;13.30;99.90
31455;DHT22;18084;53.028;8.834;2022-10-28T07:08:12;13.30;99.90
31455;DHT22;18084;53.028;8.834;2022-10-28T07:10:38;13.30;99.90
31455;DHT22;18084;53.028;8.834;2022-10-28T07:13:04;13.30;99.90
31455;DHT22;18084;53.028;8.834;2022-10-28T07:15:30;13.30;99.90
31455;DHT22;18084;53.028;8.834;2022-10-28T07:17:56;13.40;99.90
31455;DHT22;18084;53.028;8.834;2022-10-28T07:20:22;13.40;99.90
31455;DHT22;18084;53.028;8.834;2022-10-28T07:22:57;13.40;99.90
31455;DHT22;18084;53.028;8.834;2022-10-28T07:25:23;13.40;99.90
31455;DHT22;18084;53.028;8.834;2022-10-28T07:27:49;13.50;99.90
31455;DHT22;18084;53.028;8.834;2022-10-28T07:30:14;13.60;99.90
31455;DHT22;18084;53.028;8.834;2022-10-28T07:32:40;13.60;99.90
31455;DHT22;18084;53.028;8.834;2022-10-28T07:35:05;14.20;99.90
31455;DHT22;18084;53.028;8.834;2022-10-28T07:37:31;13.70;99.90
31455;DHT22;18084;53.028;8.834;2022-10-28T07:39:57;13.80;99.90
31455;DHT22;18084;53.028;8.834;2022-10-28T07:42:22;16.30;99.90
31455;DHT22;18084;53.028;8.834;2022-10-28T07:44:48;14.00;99.90
31455;DHT22;18084;53.028;8.834;2022-10-28T07:47:13;14.10;99.90
31455;DHT22;18084;53.028;8.834;2022-10-28T07:49:38;14.20;99.90
31455;DHT22;18084;53.028;8.834;2022-10-28T07:52:04;14.30;99.90
31455;DHT22;18084;53.028;8.834;2022-10-28T07:54:29;14.30;99.90
31455;DHT22;18084;53.028;8.834;2022-10-28T07:56:56;14.50;99.90
31455;DHT22;18084;53.028;8.834;2022-10-28T07:59:23;14.50;99.90
31455;DHT22;18084;53.028;8.834;2022-10-28T08:01:48;14.60;99.90
31455;DHT22;18084;53.028;8.834;2022-10-28T08:04:14;14.70;99.90
31455;DHT22;18084;53.028;8.834;2022-10-28T08:06:39;14.80;99.90
31455;DHT22;18084;53.028;8.834;2022-10-28T08:09:05;14.80;99.90
31455;DHT22;18084;53.028;8.834;2022-10-28T08:11:30;15.10;99.90
31455;DHT22;18084;53.028;8.834;2022-10-28T08:13:56;15.70;99.90
31455;DHT22;18084;53.028;8.834;2022-10-28T08:16:22;16.50;99.90
31455;DHT22;18084;53.028;8.834;2022-10-28T08:18:47;19.60;99.90
31455;DHT22;18084;53.028;8.834;2022-10-28T08:21:14;18.40;92.90
31455;DHT22;18084;53.028;8.834;2022-10-28T08:23:40;19.40;64.20
31455;DHT22;18084;53.028;8.834;2022-10-28T08:26:11;20.00;23.20
31455;DHT22;18084;53.028;8.834;2022-10-28T08:28:37;20.50;1.00
31455;DHT22;18084;53.028;8.834;2022-10-28T08:31:04;21.10;1.00
31455;DHT22;18084;53.028;8.834;2022-10-28T08:33:33;21.10;1.00
31455;DHT22;18084;53.028;8.834;2022-10-28T08:35:59;21.90;99.90
31455;DHT22;18084;53.028;8.834;2022-10-28T08:38:25;22.20;59.00
31455;DHT22;18084;53.028;8.834;2022-10-28T08:41:04;22.10;99.90
31455;DHT22;18084;53.028;8.834;2022-10-28T08:46:13;22.60;99.90
31455;DHT22;18084;53.028;8.834;2022-10-28T08:48:41;22.90;99.90
31455;DHT22;18084;53.028;8.834;2022-10-28T08:51:16;23.10;99.90
31455;DHT22;18084;53.028;8.834;2022-10-28T08:53:56;23.60;99.90
31455;DHT22;18084;53.028;8.834;2022-10-28T08:56:30;23.80;99.90
31455;DHT22;18084;53.028;8.834;2022-10-28T08:59:00;24.00;1.00
31455;DHT22;18084;53.028;8.834;2022-10-28T09:01:46;24.40;99.90
31455;DHT22;18084;53.028;8.834;2022-10-28T09:06:52;24.80;99.90
31455;DHT22;18084;53.028;8.834;2022-10-28T09:09:21;25.00;99.90
31455;DHT22;18084;53.028;8.834;2022-10-28T09:17:23;25.20;99.90
31455;DHT22;18084;53.028;8.834;2022-10-28T09:20:06;25.30;37.60
31455;DHT22;18084;53.028;8.834;2022-10-28T09:23:15;25.50;4.50
31455;DHT22;18084;53.028;8.834;2022-10-28T09:28:43;25.40;85.80
31455;DHT22;18084;53.028;8.834;2022-10-28T09:31:24;26.10;5.20
31455;DHT22;18084;53.028;8.834;2022-10-28T09:39:42;25.80;99.90
31455;DHT22;18084;53.028;8.834;2022-10-28T09:42:13;25.70;99.90
31455;DHT22;18084;53.028;8.834;2022-10-28T09:44:50;25.70;99.90
31455;DHT22;18084;53.028;8.834;2022-10-28T09:47:43;25.40;99.90
31455;DHT22;18084;53.028;8.834;2022-10-28T09:50:19;25.20;99.90
31455;DHT22;18084;53.028;8.834;2022-10-28T09:52:58;24.80;1.00
31455;DHT22;18084;53.028;8.834;2022-10-28T09:55:25;24.60;44.20
31455;DHT22;18084;53.028;8.834;2022-10-28T09:57:51;24.10;65.10
31455;DHT22;18084;53.028;8.834;2022-10-28T10:00:17;24.30;1.00
31455;DHT22;18084;53.028;8.834;2022-10-28T10:02:43;24.20;1.00
31455;DHT22;18084;53.028;8.834;2022-10-28T10:05:11;24.00;91.60
31455;DHT22;18084;53.028;8.834;2022-10-28T10:07:43;24.10;99.90
31455;DHT22;18084;53.028;8.834;2022-10-28T10:10:20;24.20;48.10
31455;DHT22;18084;53.028;8.834;2022-10-28T10:12:48;23.90;85.40
31455;DHT22;18084;53.028;8.834;2022-10-28T10:15:26;23.90;30.10
31455;DHT22;18084;53.028;8.834;2022-10-28T10:17:53;23.80;1.00
31455;DHT22;18084;53.028;8.834;2022-10-28T10:20:20;23.70;83.10
31455;DHT22;18084;53.028;8.834;2022-10-28T10:22:47;23.60;99.90
31455;DHT22;18084;53.028;8.834;2022-10-28T10:27:53;23.10;99.90
31455;DHT22;18084;53.028;8.834;2022-10-28T10:30:45;22.90;99.90
31455;DHT22;18084;53.028;8.834;2022-10-28T10:33:25;23.00;99.90
31455;DHT22;18084;53.028;8.834;2022-10-28T10:35:55;22.90;99.90
31455;DHT22;18084;53.028;8.834;2022-10-28T10:38:22;23.00;99.90
31455;DHT22;18084;53.028;8.834;2022-10-28T10:40:51;22.90;1.00
31455;DHT22;18084;53.028;8.834;2022-10-28T10:45:59;22.50;1.00
31455;DHT22;18084;53.028;8.834;2022-10-28T10:48:25;22.50;1.00
31455;DHT22;18084;53.028;8.834;2022-10-28T10:50:51;22.40;26.10
31455;DHT22;18084;53.028;8.834;2022-10-28T10:53:25;22.40;1.00
31455;DHT22;18084;53.028;8.834;2022-10-28T10:56:05;22.50;99.90
31455;DHT22;18084;53.028;8.834;2022-10-28T10:58:36;22.60;99.90
31455;DHT22;18084;53.028;8.834;2022-10-28T11:01:05;22.60;99.90
31455;DHT22;18084;53.028;8.834;2022-10-28T11:03:38;22.60;66.00
31455;DHT22;18084;53.028;8.834;2022-10-28T11:06:22;22.80;1.00
31455;DHT22;18084;53.028;8.834;2022-10-28T11:08:55;23.00;1.00
31455;DHT22;18084;53.028;8.834;2022-10-28T11:11:34;23.10;1.00
31455;DHT22;18084;53.028;8.834;2022-10-28T11:14:06;23.10;99.90
31455;DHT22;18084;53.028;8.834;2022-10-28T11:16:49;22.90;1.00
31455;DHT22;18084;53.028;8.834;2022-10-28T11:19:27;22.90;99.90
31455;DHT22;18084;53.028;8.834;2022-10-28T11:27:56;22.70;99.90
31455;DHT22;18084;53.028;8.834;2022-10-28T11:30:35;22.80;1.00
31455;DHT22;18084;53.028;8.834;2022-10-28T11:36:33;23.00;99.90
31455;DHT22;18084;53.028;8.834;2022-10-28T12:03:58;23.40;99.90
31455;DHT22;18084;53.028;8.834;2022-10-28T12:14:43;23.40;99.90
31455;DHT22;18084;53.028;8.834;2022-10-28T12:17:21;23.50;99.90
31455;DHT22;18084;53.028;8.834;2022-10-28T12:19:55;23.60;99.90
31455;DHT22;18084;53.028;8.834;2022-10-28T12:22:55;23.50;99.90
31455;DHT22;18084;53.028;8.834;2022-10-28T12:25:27;23.50;99.90
31455;DHT22;18084;53.028;8.834;2022-10-28T12:27:57;23.30;46.80
31455;DHT22;18084;53.028;8.834;2022-10-28T12:30:30;23.30;55.70
31455;DHT22;18084;53.028;8.834;2022-10-28T12:33:44;23.30;99.90
31455;DHT22;18084;53.028;8.834;2022-10-28T12:36:15;23.20;97.60
31455;DHT22;18084;53.028;8.834;2022-10-28T12:38:58;23.20;99.90
31455;DHT22;18084;53.028;8.834;2022-10-28T12:41:45;23.10;99.90
31455;DHT22;18084;53.028;8.834;2022-10-28T12:44:22;23.00;99.90
31455;DHT22;18084;53.028;8.834;2022-10-28T12:47:15;23.10;99.90
31455;DHT22;18084;53.028;8.834;2022-10-28T12:50:08;23.00;34.60
31455;DHT22;18084;53.028;8.834;2022-10-28T12:55:39;23.00;91.80
31455;DHT22;18084;53.028;8.834;2022-10-28T12:58:23;23.00;99.90
31455;DHT22;18084;53.028;8.834;2022-10-28T13:00:59;23.00;99.90
31455;DHT22;18084;53.028;8.834;2022-10-28T13:03:25;22.90;99.90
31455;DHT22;18084;53.028;8.834;2022-10-28T13:25:55;22.70;1.00
31455;DHT22;18084;53.028;8.834;2022-10-28T13:28:44;22.70;99.90
31455;DHT22;18084;53.028;8.834;2022-10-28T13:31:10;22.70;2.30
31455;DHT22;18084;53.028;8.834;2022-10-28T13:33:37;22.60;99.90
31455;DHT22;18084;53.028;8.834;2022-10-28T13:36:16;22.60;99.90
31455;DHT22;18084;53.028;8.834;2022-10-28T13:38:48;22.50;99.90
31455;DHT22;18084;53.028;8.834;2022-10-28T13:41:35;22.40;99.90
31455;DHT22;18084;53.028;8.834;2022-10-28T13:49:31;22.40;99.90
31455;DHT22;18084;53.028;8.834;2022-10-28T13:59:59;22.20;99.90
31455;DHT22;18084;53.028;8.834;2022-10-28T14:02:45;22.20;99.90
31455;DHT22;18084;53.028;8.834;2022-10-28T14:05:16;22.20;99.90
31455;DHT22;18084;53.028;8.834;2022-10-28T14:08:03;22.10;99.90
31455;DHT22;18084;53.028;8.834;2022-10-28T14:10:31;22.10;99.90
31455;DHT22;18084;53.028;8.834;2022-10-28T14:13:17;22.10;99.90
31455;DHT22;18084;53.028;8.834;2022-10-28T14:15:44;22.10;99.90
31455;DHT22;18084;53.028;8.834;2022-10-28T14:20:51;22.00;99.90
31455;DHT22;18084;53.028;8.834;2022-10-28T14:44:21;21.70;99.90
31455;DHT22;18084;53.028;8.834;2022-10-28T14:49:39;21.50;99.90
31455;DHT22;18084;53.028;8.834;2022-10-28T14:52:15;23.10;99.90
31455;DHT22;18084;53.028;8.834;2022-10-28T14:54:47;22.60;1.00
31455;DHT22;18084;53.028;8.834;2022-10-28T14:57:13;21.40;99.90
31455;DHT22;18084;53.028;8.834;2022-10-28T14:59:44;21.30;1.00
31455;DHT22;18084;53.028;8.834;2022-10-28T15:02:13;22.30;1.00
31455;DHT22;18084;53.028;8.834;2022-10-28T15:04:42;21.20;1.00
31455;DHT22;18084;53.028;8.834;2022-10-28T15:07:17;22.30;1.00
31455;DHT22;18084;53.028;8.834;2022-10-28T15:09:44;21.10;1.00
31455;DHT22;18084;53.028;8.834;2022-10-28T15:12:14;22.50;1.00
31455;DHT22;18084;53.028;8.834;2022-10-28T15:17:17;21.50;1.00
31455;DHT22;18084;53.028;8.834;2022-10-28T15:19:45;21.20;1.00
31455;DHT22;18084;53.028;8.834;2022-10-28T15:24:41;20.60;1.00
31455;DHT22;18084;53.028;8.834;2022-10-28T15:27:10;23.10;1.00
31455;DHT22;18084;53.028;8.834;2022-10-28T15:29:36;22.70;1.00
31455;DHT22;18084;53.028;8.834;2022-10-28T15:32:08;20.40;1.00
31455;DHT22;18084;53.028;8.834;2022-10-28T15:34:35;20.40;1.00
31455;DHT22;18084;53.028;8.834;2022-10-28T15:37:00;20.40;1.00
31455;DHT22;18084;53.028;8.834;2022-10-28T15:39:26;21.60;1.00
31455;DHT22;18084;53.028;8.834;2022-10-28T15:41:52;20.20;1.00
31455;DHT22;18084;53.028;8.834;2022-10-28T15:44:30;22.60;1.00
31455;DHT22;18084;53.028;8.834;2022-10-28T15:46:56;20.10;1.00
31455;DHT22;18084;53.028;8.834;2022-10-28T15:49:32;21.10;1.00
31455;DHT22;18084;53.028;8.834;2022-10-28T15:54:53;21.50;8.10
31455;DHT22;18084;53.028;8.834;2022-10-28T15:57:24;20.00;8.00
31455;DHT22;18084;53.028;8.834;2022-10-28T16:00:19;19.80;15.90
31455;DHT22;18084;53.028;8.834;2022-10-28T16:02:55;21.70;23.80
31455;DHT22;18084;53.028;8.834;2022-10-28T16:08:00;21.30;32.90
31455;DHT22;18084;53.028;8.834;2022-10-28T16:10:48;22.20;35.30
31455;DHT22;18084;53.028;8.834;2022-10-28T16:13:31;19.40;36.30
31455;DHT22;18084;53.028;8.834;2022-10-28T16:16:02;19.40;42.90
31455;DHT22;18084;53.028;8.834;2022-10-28T16:18:29;21.50;43.10
31455;DHT22;18084;53.028;8.834;2022-10-28T16:20:57;22.10;48.80
31455;DHT22;18084;53.028;8.834;2022-10-28T16:23:33;20.50;49.40
31455;DHT22;18084;53.028;8.834;2022-10-28T16:25:59;20.60;54.70
31455;DHT22;18084;53.028;8.834;2022-10-28T16:28:26;19.80;54.90
31455;DHT22;18084;53.028;8.834;2022-10-28T16:30:56;20.70;56.00
31455;DHT22;18084;53.028;8.834;2022-10-28T16:33:33;21.40;56.70
31455;DHT22;18084;53.028;8.834;2022-10-28T16:36:00;21.00;58.00
31455;DHT22;18084;53.028;8.834;2022-10-28T16:38:31;20.60;55.10
31455;DHT22;18084;53.028;8.834;2022-10-28T16:40:57;19.10;56.80
31455;DHT22;18084;53.028;8.834;2022-10-28T16:43:24;20.60;55.70
31455;DHT22;18084;53.028;8.834;2022-10-28T16:45:52;19.80;54.40
31455;DHT22;18084;53.028;8.834;2022-10-28T16:48:19;19.10;54.00
31455;DHT22;18084;53.028;8.834;2022-10-28T16:50:50;19.00;53.80
31455;DHT22;18084;53.028;8.834;2022-10-28T16:53:17;19.50;49.70
31455;DHT22;18084;53.028;8.834;2022-10-28T16:55:43;21.40;49.70
31455;DHT22;18084;53.028;8.834;2022-10-28T16:58:08;21.70;49.60
31455;DHT22;18084;53.028;8.834;2022-10-28T17:00:35;20.00;46.50
31455;DHT22;18084;53.028;8.834;2022-10-28T17:03:00;20.30;41.00
31455;DHT22;18084;53.028;8.834;2022-10-28T17:05:26;20.50;43.60
31455;DHT22;18084;53.028;8.834;2022-10-28T17:07:52;19.10;42.80
31455;DHT22;18084;53.028;8.834;2022-10-28T17:10:20;20.40;47.30
31455;DHT22;18084;53.028;8.834;2022-10-28T17:12:46;19.50;47.90
31455;DHT22;18084;53.028;8.834;2022-10-28T17:15:11;21.20;52.60
31455;DHT22;18084;53.028;8.834;2022-10-28T17:17:37;21.60;56.40
31455;DHT22;18084;53.028;8.834;2022-10-28T17:20:03;19.40;55.70
31455;DHT22;18084;53.028;8.834;2022-10-28T17:22:29;18.90;57.60
31455;DHT22;18084;53.028;8.834;2022-10-28T17:24:54;19.40;57.00
31455;DHT22;18084;53.028;8.834;2022-10-28T17:27:20;20.70;58.20
31455;DHT22;18084;53.028;8.834;2022-10-28T17:29:46;21.20;57.10
31455;DHT22;18084;53.028;8.834;2022-10-28T17:32:11;20.10;54.40
31455;DHT22;18084;53.028;8.834;2022-10-28T17:34:37;21.20;56.30
31455;DHT22;18084;53.028;8.834;2022-10-28T17:37:03;21.40;55.50
31455;DHT22;18084;53.028;8.834;2022-10-28T17:39:28;20.20;52.40
31455;DHT22;18084;53.028;8.834;2022-10-28T17:41:54;19.00;52.20
31455;DHT22;18084;53.028;8.834;2022-10-28T17:44:19;18.90;53.40
31455;DHT22;18084;53.028;8.834;2022-10-28T17:46:47;19.20;52.70
31455;DHT22;18084;53.028;8.834;2022-10-28T17:49:13;20.40;54.90
31455;DHT22;18084;53.028;8.834;2022-10-28T17:51:39;19.50;51.40
31455;DHT22;18084;53.028;8.834;2022-10-28T17:54:05;20.20;57.60
31455;DHT22;18084;53.028;8.834;2022-10-28T17:56:34;19.40;60.10
31455;DHT22;18084;53.028;8.834;2022-10-28T17:59:00;21.10;62.20
31455;DHT22;18084;53.028;8.834;2022-10-28T18:01:29;20.30;58.00
31455;DHT22;18084;53.028;8.834;2022-10-28T18:03:55;20.10;56.70
31455;DHT22;18084;53.028;8.834;2022-10-28T18:06:21;20.80;56.80
31455;DHT22;18084;53.028;8.834;2022-10-28T18:08:47;19.90;55.80
31455;DHT22;18084;53.028;8.834;2022-10-28T18:11:15;20.20;51.10
31455;DHT22;18084;53.028;8.834;2022-10-28T18:13:43;21.40;55.40
31455;DHT22;18084;53.028;8.834;2022-10-28T18:16:14;19.70;43.40
31455;DHT22;18084;53.028;8.834;2022-10-28T18:18:40;20.30;38.80
31455;DHT22;18084;53.028;8.834;2022-10-28T18:21:06;21.30;40.60
31455;DHT22;18084;53.028;8.834;2022-10-28T18:23:33;19.80;35.40
31455;DHT22;18084;53.028;8.834;2022-10-28T18:26:03;21.20;28.20
31455;DHT22;18084;53.028;8.834;2022-10-28T18:28:34;20.00;30.80
31455;DHT22;18084;53.028;8.834;2022-10-28T18:34:34;19.00;34.60
31455;DHT22;18084;53.028;8.834;2022-10-28T18:37:28;18.90;38.00
31455;DHT22;18084;53.028;8.834;2022-10-28T18:40:16;18.90;39.30
31455;DHT22;18084;53.028;8.834;2022-10-28T18:42:57;19.00;39.00